PAUN/UNK METAR and TAF weather

Enter ICAO airport designator
Station Type Date Time Source
PAUN METAR 2020/10/29 17:04 UTC NOAA

PAUN 291704Z AUTO 07012KT 10SM SCT021 OVC095 M06/M07 A3004 RMK AO2 FZRANO


Station Type Date Time Source
PAUN Decoded METAR 2020/10/29 17:04 UTC NOAA

Unalakleet, AK, United States (PAUN) 63-53N 160-48W 6M
Oct 29, 2020 - 01:04 PM EDT / 2020.10.29 1704 UTC
Wind: from the ENE (070 degrees) at 14 MPH (12 KT):0
Visibility: 10 mile(s):0
Sky conditions: overcast
Temperature: 21 F (-6 C)
Windchill: 8 F (-13 C):1
Dew Point: 19 F (-7 C)
Relative Humidity: 92%
Pressure (altimeter): 30.04 in. Hg (1017 hPa)
ob: PAUN 291704Z AUTO 07012KT 10SM SCT021 OVC095 M06/M07 A3004 RMK AO2 FZRANO
cycle: 17

Station Type Date Time Source
PAUN TAF 2020/10/29 14:12 UTC NOAA

TAF
AMD PAUN 291410Z 2914/3012 07010KT P6SM OVC015
FM291500 06010KT 6SM -SHSN OVC015
FM300300 01005KT P6SM BKN050

Example: see airport list